Time;durP1;ratioP1;P1;durP2;ratioP2;P2;SDS_P1;SDS_P2;PMS_P1;PMS_P2;Temp;Humidity;BMP_temperature;BMP_pressure;BME280_temperature;BME280_humidity;BME280_pressure;Samples;Min_cycle;Max_cycle;Signal;HPM_P1;HPM_P2
2022/03/30 00:02:00;;;;;;;49.15;16.20;;;3.20;99.90;;;;;;5036566;28;20048;-87
2022/03/30 00:04:26;;;;;;;45.90;16.00;;;2.60;99.90;;;;;;5033730;28;20042;-87
2022/03/30 00:06:52;;;;;;;46.28;17.13;;;2.70;99.90;;;;;;5065693;28;20165;-87
2022/03/30 00:09:17;;;;;;;42.95;18.15;;;2.70;99.90;;;;;;5036348;28;20042;-87
2022/03/30 00:11:43;;;;;;;39.33;15.55;;;2.70;99.90;;;;;;5036197;28;20038;-86
2022/03/30 00:14:08;;;;;;;42.05;17.33;;;2.70;99.90;;;;;;5031762;28;20131;-86
2022/03/30 00:16:34;;;;;;;34.97;15.13;;;2.70;99.90;;;;;;5067062;28;20046;-86
2022/03/30 00:19:01;;;;;;;36.08;16.65;;;2.60;99.90;;;;;;5037631;28;20026;-86
2022/03/30 00:21:27;;;;;;;44.92;17.35;;;2.60;99.90;;;;;;5036159;28;20042;-86
2022/03/30 00:23:52;;;;;;;43.45;17.15;;;2.60;99.90;;;;;;5038492;28;20025;-86
2022/03/30 00:26:19;;;;;;;42.80;14.40;;;2.60;99.90;;;;;;5038328;28;20037;-86
2022/03/30 00:28:44;;;;;;;39.80;17.05;;;2.50;99.90;;;;;;5039454;28;20034;-86
2022/03/30 00:31:11;;;;;;;35.25;14.38;;;2.50;99.90;;;;;;5039245;28;20026;-87
2022/03/30 00:33:37;;;;;;;51.90;17.33;;;2.50;99.90;;;;;;5070351;28;20050;-85
2022/03/30 00:36:03;;;;;;;38.85;17.52;;;2.40;99.90;;;;;;5061210;28;20045;-86
2022/03/30 00:38:28;;;;;;;38.08;16.60;;;2.30;99.90;;;;;;5058989;28;20054;-86
2022/03/30 00:40:54;;;;;;;45.20;17.95;;;2.30;99.90;;;;;;5059262;28;20060;-86
2022/03/30 00:43:20;;;;;;;47.65;18.88;;;2.30;99.90;;;;;;5059268;28;20085;-86
2022/03/30 00:45:45;;;;;;;45.58;17.25;;;2.30;99.90;;;;;;5057084;28;20132;-86
2022/03/30 00:48:11;;;;;;;45.22;18.48;;;2.20;99.90;;;;;;5025532;28;20057;-86
2022/03/30 00:50:37;;;;;;;44.28;16.85;;;2.20;99.90;;;;;;5031390;28;20072;-86
2022/03/30 00:53:02;;;;;;;49.60;18.83;;;2.10;99.90;;;;;;5045454;28;20037;-86
2022/03/30 00:55:28;;;;;;;49.47;18.52;;;2.10;99.90;;;;;;5044148;28;20087;-86
2022/03/30 00:57:54;;;;;;;45.75;18.35;;;2.10;99.90;;;;;;5043491;28;20458;-86
2022/03/30 01:00:21;;;;;;;40.85;16.02;;;2.10;99.90;;;;;;5047009;28;20041;-86
2022/03/30 01:02:48;;;;;;;58.70;21.13;;;2.20;99.90;;;;;;5048908;28;20034;-86
2022/03/30 01:05:14;;;;;;;53.63;18.65;;;2.30;99.90;;;;;;5047136;28;20053;-86
2022/03/30 01:07:40;;;;;;;45.83;19.40;;;2.50;99.90;;;;;;5045597;28;20045;-86
2022/03/30 01:10:08;;;;;;;60.10;19.17;;;2.50;99.90;;;;;;5045122;28;20042;-86
2022/03/30 01:12:38;;;;;;;55.08;18.33;;;2.60;99.90;;;;;;5041036;28;20048;-86
2022/03/30 01:15:08;;;;;;;53.22;18.80;;;2.60;99.90;;;;;;5042352;28;20333;-86
2022/03/30 01:17:34;;;;;;;39.40;18.00;;;2.70;99.90;;;;;;5042579;28;20380;-85
2022/03/30 01:20:00;;;;;;;42.92;17.75;;;2.70;99.90;;;;;;5038434;28;20107;-86
2022/03/30 01:22:26;;;;;;;42.85;17.27;;;2.80;99.90;;;;;;5027798;28;20041;-86
2022/03/30 01:24:52;;;;;;;48.05;18.88;;;2.90;99.90;;;;;;5057107;28;20106;-86
2022/03/30 01:27:17;;;;;;;53.80;19.50;;;2.90;99.90;;;;;;5057762;28;20021;-87
2022/03/30 01:32:29;;;;;;;40.60;16.42;;;3.10;99.90;;;;;;5059082;28;20037;-87
2022/03/30 01:34:58;;;;;;;50.10;18.63;;;3.20;99.90;;;;;;5058182;28;20026;-87
2022/03/30 01:37:25;;;;;;;56.72;20.08;;;3.20;99.90;;;;;;5057974;28;20060;-87
2022/03/30 01:39:51;;;;;;;45.17;17.88;;;3.30;99.90;;;;;;5041589;28;20056;-87
2022/03/30 01:42:17;;;;;;;50.47;18.48;;;3.30;99.90;;;;;;5136330;22;20061;-89
2022/03/30 01:44:45;;;;;;;47.22;20.27;;;3.40;99.90;;;;;;5023106;28;20143;-88
2022/03/30 01:47:12;;;;;;;50.00;19.58;;;3.50;99.90;;;;;;5042178;28;20559;-89
2022/03/30 01:49:38;;;;;;;43.38;19.77;;;3.50;99.90;;;;;;5041727;28;20506;-89
2022/03/30 01:52:04;;;;;;;46.55;19.05;;;3.50;99.90;;;;;;5042679;28;20053;-89
2022/03/30 01:54:35;;;;;;;41.53;18.85;;;3.50;99.90;;;;;;5058543;28;20048;-88
2022/03/30 01:57:00;;;;;;;43.10;17.77;;;3.60;99.90;;;;;;5061739;28;20044;-88
2022/03/30 01:59:26;;;;;;;39.78;17.10;;;3.60;99.90;;;;;;5095765;28;20050;-88
2022/03/30 02:01:52;;;;;;;52.33;18.42;;;3.70;99.90;;;;;;5080015;28;20040;-89
2022/03/30 02:04:18;;;;;;;48.58;18.30;;;3.70;99.90;;;;;;5061818;28;20051;-89
2022/03/30 02:06:46;;;;;;;53.65;19.33;;;3.70;99.90;;;;;;5056583;28;20055;-88
2022/03/30 02:09:13;;;;;;;49.63;18.80;;;3.70;99.90;;;;;;5042328;28;20051;-90
2022/03/30 02:11:42;;;;;;;40.90;17.75;;;3.80;99.90;;;;;;5076849;28;20131;-89
2022/03/30 02:14:08;;;;;;;54.47;20.73;;;4.00;99.90;;;;;;5058161;28;20044;-88
2022/03/30 02:16:34;;;;;;;49.42;18.73;;;3.90;99.90;;;;;;5041454;28;20108;-89
2022/03/30 02:19:00;;;;;;;45.83;18.52;;;3.90;99.90;;;;;;5041468;28;20053;-90
2022/03/30 02:21:26;;;;;;;43.20;16.90;;;3.90;99.90;;;;;;5076687;28;20044;-89
2022/03/30 02:23:51;;;;;;;38.13;17.75;;;3.90;99.90;;;;;;5060413;28;20083;-89
2022/03/30 02:26:18;;;;;;;45.00;18.85;;;3.90;99.90;;;;;;5077653;28;20096;-89
2022/03/30 02:28:53;;;;;;;39.78;16.88;;;3.90;99.90;;;;;;5095494;28;20040;-89
2022/03/30 02:31:19;;;;;;;40.90;16.70;;;3.90;99.90;;;;;;5078209;28;20056;-89
2022/03/30 02:33:45;;;;;;;42.55;19.00;;;4.00;99.90;;;;;;5086872;28;20064;-89
2022/03/30 02:36:11;;;;;;;42.70;19.35;;;4.00;99.90;;;;;;5041880;28;20045;-89
2022/03/30 02:38:37;;;;;;;43.08;17.67;;;4.00;99.90;;;;;;5075962;28;20080;-89
2022/03/30 02:41:05;;;;;;;45.50;18.95;;;4.10;99.90;;;;;;5075099;28;20101;-89
2022/03/30 02:43:34;;;;;;;51.67;18.75;;;4.10;99.90;;;;;;5055994;28;20048;-89
2022/03/30 02:46:00;;;;;;;48.08;20.23;;;4.10;99.90;;;;;;5096688;28;20044;-89
2022/03/30 02:48:28;;;;;;;49.80;18.60;;;4.10;99.90;;;;;;5096257;28;20048;-89
2022/03/30 02:50:56;;;;;;;42.90;18.23;;;4.20;99.90;;;;;;5077522;28;20048;-88
2022/03/30 02:53:23;;;;;;;50.08;18.40;;;4.20;99.90;;;;;;5096356;28;20079;-90
2022/03/30 02:55:49;;;;;;;36.97;17.25;;;4.20;99.90;;;;;;5078254;28;20408;-89
2022/03/30 02:58:15;;;;;;;38.08;16.50;;;4.50;99.90;;;;;;5095910;28;20410;-88
2022/03/30 03:00:42;;;;;;;39.75;18.05;;;4.00;99.90;;;;;;5096054;28;20044;-89
2022/03/30 03:03:09;;;;;;;36.70;17.65;;;4.10;99.90;;;;;;5096305;28;20054;-89
2022/03/30 03:05:36;;;;;;;42.75;16.65;;;4.60;99.90;;;;;;5098266;28;20044;-90
2022/03/30 03:08:05;;;;;;;44.45;17.40;;;4.40;99.90;;;;;;5066231;28;20448;-90
2022/03/30 03:10:39;;;;;;;52.20;19.23;;;4.30;99.90;;;;;;5100244;28;20028;-89
2022/03/30 03:13:05;;;;;;;41.05;16.13;;;3.80;99.90;;;;;;5100156;28;20456;-88
2022/03/30 03:15:32;;;;;;;42.83;18.73;;;5.20;99.90;;;;;;5081245;28;20097;-88
2022/03/30 03:18:01;;;;;;;41.75;17.63;;;4.40;99.90;;;;;;5102744;28;20077;-88
2022/03/30 03:20:28;;;;;;;47.00;18.55;;;4.80;99.90;;;;;;5086348;28;20048;-90
2022/03/30 03:22:57;;;;;;;38.85;14.82;;;4.40;99.90;;;;;;5087735;28;20071;-89
2022/03/30 03:25:23;;;;;;;47.67;17.25;;;4.70;99.90;;;;;;5090801;28;20101;-88
2022/03/30 03:27:49;;;;;;;37.95;16.38;;;4.40;99.90;;;;;;5107142;28;20074;-89
2022/03/30 03:30:15;;;;;;;33.60;15.90;;;4.60;99.90;;;;;;5103923;28;20051;-90
2022/03/30 03:32:42;;;;;;;49.83;16.17;;;4.30;99.90;;;;;;5083403;28;20048;-90
2022/03/30 03:35:09;;;;;;;42.75;16.52;;;4.40;99.90;;;;;;5083290;28;20048;-89
2022/03/30 03:37:38;;;;;;;44.13;17.77;;;4.40;99.90;;;;;;5100966;28;20048;-88
2022/03/30 03:40:08;;;;;;;43.45;16.17;;;4.60;99.90;;;;;;5102068;28;20050;-89
2022/03/30 03:42:35;;;;;;;40.40;17.08;;;4.60;99.90;;;;;;5082691;28;20102;-89
2022/03/30 03:45:01;;;;;;;45.65;15.45;;;4.50;99.90;;;;;;5082140;28;20059;-89
2022/03/30 03:47:26;;;;;;;45.35;18.23;;;5.10;99.90;;;;;;5100498;28;20044;-88
2022/03/30 03:49:52;;;;;;;37.55;16.50;;;4.80;99.90;;;;;;5082014;28;20109;-88
2022/03/30 03:52:21;;;;;;;43.53;17.42;;;4.60;99.90;;;;;;5084882;28;20040;-90
2022/03/30 03:54:46;;;;;;;36.28;14.82;;;5.20;99.90;;;;;;5103516;28;20055;-89
2022/03/30 03:57:12;;;;;;;43.58;15.77;;;5.30;99.90;;;;;;5104945;28;20126;-87
2022/03/30 03:59:38;;;;;;;37.72;15.95;;;4.50;99.90;;;;;;5114275;28;20075;-88
2022/03/30 04:02:04;;;;;;;34.15;14.77;;;4.90;99.90;;;;;;5118460;28;20047;-89
2022/03/30 04:04:37;;;;;;;32.05;12.43;;;4.80;99.90;;;;;;5095906;28;20048;-88
2022/03/30 04:07:04;;;;;;;26.90;10.98;;;4.80;99.90;;;;;;5106886;28;20052;-89
2022/03/30 04:09:32;;;;;;;19.17;7.32;;;4.80;99.90;;;;;;5099799;28;20051;-88
2022/03/30 04:12:01;;;;;;;18.27;7.28;;;4.80;99.90;;;;;;5099256;28;20081;-88
2022/03/30 04:14:26;;;;;;;14.93;5.82;;;5.40;99.90;;;;;;5099375;28;20047;-89
2022/03/30 04:16:52;;;;;;;12.32;4.15;;;5.50;99.90;;;;;;5080572;28;20569;-88
2022/03/30 04:19:17;;;;;;;10.02;3.40;;;4.80;99.90;;;;;;5085768;28;20071;-89
2022/03/30 04:21:46;;;;;;;6.53;2.80;;;5.30;99.90;;;;;;5099485;28;20040;-88
2022/03/30 04:24:12;;;;;;;6.25;2.47;;;5.00;99.90;;;;;;5099700;28;20075;-88
2022/03/30 04:26:39;;;;;;;7.63;2.78;;;5.60;99.90;;;;;;5102704;28;20048;-89
2022/03/30 04:29:05;;;;;;;3.38;1.65;;;5.20;99.90;;;;;;5101854;28;20482;-89
2022/03/30 04:31:40;;;;;;;6.03;2.20;;;5.10;99.90;;;;;;5067134;28;20040;-88
2022/03/30 04:34:06;;;;;;;5.75;2.35;;;5.10;99.90;;;;;;5067096;28;20112;-88
2022/03/30 04:36:34;;;;;;;4.22;1.95;;;5.10;99.90;;;;;;5103378;28;20076;-90
2022/03/30 04:39:03;;;;;;;3.33;1.23;;;5.10;99.90;;;;;;5069961;28;20056;-89
2022/03/30 04:41:31;;;;;;;2.25;0.93;;;5.10;99.90;;;;;;5085681;28;20115;-88
2022/03/30 04:43:57;;;;;;;1.67;0.82;;;5.10;99.90;;;;;;5083811;28;20052;-88
2022/03/30 04:46:22;;;;;;;1.60;0.73;;;5.10;99.90;;;;;;5082730;28;20055;-88
2022/03/30 04:48:48;;;;;;;2.00;1.00;;;5.00;99.90;;;;;;5084614;28;20079;-88
2022/03/30 04:51:16;;;;;;;1.90;0.90;;;5.00;99.90;;;;;;5084180;28;20048;-88
2022/03/30 04:53:42;;;;;;;2.08;0.80;;;5.00;99.90;;;;;;5084286;28;20055;-88
2022/03/30 04:56:08;;;;;;;2.10;0.65;;;5.00;99.90;;;;;;5102129;28;20044;-88
2022/03/30 04:58:34;;;;;;;1.70;1.10;;;4.90;99.90;;;;;;5101964;28;20059;-88
2022/03/30 05:01:00;;;;;;;2.60;1.35;;;4.80;99.90;;;;;;5087000;28;20044;-88
2022/03/30 05:03:25;;;;;;;2.47;1.35;;;4.80;99.90;;;;;;5103913;28;20090;-89
2022/03/30 05:05:51;;;;;;;3.30;1.52;;;4.80;99.90;;;;;;5106706;28;20036;-89
2022/03/30 05:08:17;;;;;;;4.25;1.52;;;4.70;99.90;;;;;;5102840;28;20052;-90
2022/03/30 05:10:46;;;;;;;3.53;1.60;;;4.70;99.90;;;;;;5048694;28;20044;-90
2022/03/30 05:13:13;;;;;;;4.65;1.85;;;4.70;99.90;;;;;;5083237;28;20052;-88
2022/03/30 05:15:41;;;;;;;3.70;2.17;;;4.70;99.90;;;;;;5059292;28;20390;-89
2022/03/30 05:18:07;;;;;;;6.25;2.97;;;4.70;99.90;;;;;;5076703;28;20048;-89
2022/03/30 05:20:33;;;;;;;4.43;2.13;;;4.70;99.90;;;;;;5058720;28;20032;-89
2022/03/30 05:22:59;;;;;;;5.13;1.90;;;4.70;99.90;;;;;;5059400;28;20437;-89
2022/03/30 05:25:24;;;;;;;4.55;2.42;;;4.70;99.90;;;;;;5076637;28;20110;-89
2022/03/30 05:27:50;;;;;;;3.92;2.05;;;4.60;99.90;;;;;;5057855;28;20048;-89
2022/03/30 05:30:15;;;;;;;3.22;1.58;;;4.70;99.90;;;;;;5042101;28;20093;-90
2022/03/30 05:32:44;;;;;;;2.58;1.35;;;4.70;99.90;;;;;;5075718;28;20041;-89
2022/03/30 05:35:10;;;;;;;2.78;1.60;;;4.70;99.90;;;;;;5075970;28;20056;-90
2022/03/30 05:37:36;;;;;;;3.05;1.67;;;4.60;99.90;;;;;;5075972;28;20053;-89
2022/03/30 05:40:04;;;;;;;2.70;1.60;;;4.60;99.90;;;;;;5075894;28;20068;-89
2022/03/30 05:42:29;;;;;;;7.00;1.55;;;4.50;99.90;;;;;;5075951;28;20105;-90
2022/03/30 05:44:58;;;;;;;3.00;1.42;;;4.50;99.90;;;;;;5076332;28;20074;-90
2022/03/30 05:47:24;;;;;;;4.97;1.60;;;4.60;99.90;;;;;;5079137;28;20040;-89
2022/03/30 05:49:49;;;;;;;3.10;2.05;;;4.70;99.90;;;;;;5084575;28;20478;-89
2022/03/30 05:52:19;;;;;;;2.88;1.60;;;4.70;99.90;;;;;;5072449;28;20112;-90
2022/03/30 05:54:44;;;;;;;2.70;1.17;;;4.70;99.90;;;;;;5078286;28;20056;-90
2022/03/30 05:57:10;;;;;;;2.65;1.20;;;4.70;99.90;;;;;;5096120;28;20416;-90
2022/03/30 05:59:42;;;;;;;2.65;1.30;;;4.60;99.90;;;;;;5095930;28;20041;-90
2022/03/30 06:02:10;;;;;;;3.03;1.20;;;4.50;99.90;;;;;;5095317;28;20044;-89
2022/03/30 06:04:36;;;;;;;3.05;1.10;;;4.50;99.90;;;;;;5077673;28;20025;-88
2022/03/30 06:07:03;;;;;;;3.38;1.50;;;4.50;99.90;;;;;;5091801;28;20090;-89
2022/03/30 06:09:29;;;;;;;9.60;2.00;;;4.40;99.90;;;;;;5058701;28;20051;-90
2022/03/30 06:11:55;;;;;;;4.30;2.25;;;4.70;99.90;;;;;;5058758;28;20049;-89
2022/03/30 06:14:21;;;;;;;3.75;1.63;;;5.20;99.90;;;;;;5077216;28;20116;-90
2022/03/30 06:16:46;;;;;;;13.15;2.03;;;4.50;99.90;;;;;;5076892;28;20040;-88
2022/03/30 06:19:13;;;;;;;2.72;1.33;;;4.50;99.90;;;;;;5061056;28;20040;-88
2022/03/30 06:21:42;;;;;;;3.45;1.52;;;4.60;99.90;;;;;;5081437;28;20105;-90
2022/03/30 06:24:09;;;;;;;2.08;1.38;;;4.70;99.90;;;;;;5081294;28;20079;-89
2022/03/30 06:26:36;;;;;;;4.20;1.67;;;4.80;99.90;;;;;;5076682;28;20040;-89
2022/03/30 06:29:02;;;;;;;2.97;1.40;;;4.90;99.90;;;;;;5076673;28;20044;-90
2022/03/30 06:31:28;;;;;;;3.60;1.30;;;4.90;99.90;;;;;;5077283;28;20060;-90
2022/03/30 06:33:54;;;;;;;4.18;1.48;;;4.90;99.90;;;;;;5076588;28;20076;-90
2022/03/30 06:36:22;;;;;;;4.47;2.03;;;5.00;99.90;;;;;;5058677;28;20090;-89
2022/03/30 06:38:48;;;;;;;8.80;1.50;;;4.90;99.90;;;;;;5058485;28;20044;-90
2022/03/30 06:41:16;;;;;;;3.25;1.50;;;5.00;99.90;;;;;;5076805;28;20049;-91
2022/03/30 06:43:46;;;;;;;7.00;1.40;;;5.00;99.90;;;;;;5058288;28;20087;-90
2022/03/30 06:46:16;;;;;;;3.50;1.67;;;5.10;99.90;;;;;;5058110;28;20052;-89
2022/03/30 06:48:42;;;;;;;6.45;1.70;;;5.10;99.90;;;;;;5058749;28;20120;-89
2022/03/30 06:51:08;;;;;;;5.85;1.75;;;5.30;99.90;;;;;;5076085;28;20041;-89
2022/03/30 06:53:34;;;;;;;3.67;1.33;;;5.30;99.90;;;;;;5076755;28;20112;-90
2022/03/30 06:55:59;;;;;;;5.18;1.27;;;5.40;99.90;;;;;;5042470;28;20175;-89
2022/03/30 06:58:25;;;;;;;7.40;2.47;;;5.40;99.90;;;;;;5041521;28;20508;-90
2022/03/30 07:00:51;;;;;;;3.88;1.13;;;5.40;99.90;;;;;;5057338;28;20067;-89
2022/03/30 07:03:17;;;;;;;5.43;1.48;;;5.50;99.90;;;;;;5058170;28;20044;-89
2022/03/30 07:05:46;;;;;;;7.05;1.73;;;5.50;99.90;;;;;;5076079;28;20102;-89
2022/03/30 07:10:59;;;;;;;8.38;2.08;;;5.50;99.90;;;;;;5064627;28;20048;-89
2022/03/30 07:13:24;;;;;;;7.93;1.50;;;5.70;99.90;;;;;;5098032;28;20045;-90
2022/03/30 07:15:56;;;;;;;4.72;1.67;;;5.70;99.90;;;;;;5098170;28;20062;-89
2022/03/30 07:18:21;;;;;;;6.25;1.60;;;5.90;99.90;;;;;;5064771;28;20044;-90
2022/03/30 07:20:47;;;;;;;4.10;1.50;;;5.80;99.90;;;;;;5062992;28;20040;-89
2022/03/30 07:23:16;;;;;;;6.88;1.52;;;5.80;99.90;;;;;;5090955;28;20051;-90
2022/03/30 07:25:42;;;;;;;5.72;1.23;;;5.80;99.90;;;;;;5060541;28;20072;-90
2022/03/30 07:28:07;;;;;;;7.95;1.58;;;5.90;99.90;;;;;;5076489;28;20044;-89
2022/03/30 07:30:34;;;;;;;7.75;1.70;;;5.80;99.90;;;;;;5070215;28;20045;-90
2022/03/30 07:33:01;;;;;;;4.68;1.40;;;5.90;99.90;;;;;;5061491;28;20044;-89
2022/03/30 07:35:29;;;;;;;5.13;1.75;;;6.00;99.90;;;;;;5078058;28;20094;-90
2022/03/30 07:37:57;;;;;;;6.22;1.58;;;6.00;99.90;;;;;;5060702;28;20041;-89
2022/03/30 07:40:24;;;;;;;6.57;3.70;;;6.10;99.90;;;;;;5078602;28;20029;-89
2022/03/30 07:42:51;;;;;;;27.20;4.97;;;6.20;99.90;;;;;;5059010;28;20068;-90
2022/03/30 07:45:18;;;;;;;7.50;2.80;;;6.40;99.90;;;;;;5076728;28;20467;-89
2022/03/30 07:47:43;;;;;;;5.40;2.50;;;6.30;99.90;;;;;;5076728;28;20083;-90
2022/03/30 07:50:10;;;;;;;8.40;2.58;;;6.50;99.90;;;;;;5057853;28;20033;-89
2022/03/30 07:52:36;;;;;;;5.03;2.70;;;6.60;99.90;;;;;;5060792;28;20502;-89
2022/03/30 07:55:03;;;;;;;4.85;2.45;;;6.80;99.90;;;;;;5061899;28;20053;-89
2022/03/30 07:57:28;;;;;;;5.78;2.35;;;6.90;99.90;;;;;;5048016;28;20040;-90
2022/03/30 07:59:55;;;;;;;5.93;2.13;;;6.80;99.90;;;;;;5081970;28;20401;-89
2022/03/30 08:02:22;;;;;;;6.07;2.33;;;7.00;99.90;;;;;;5080258;28;20040;-89
2022/03/30 08:04:48;;;;;;;11.80;2.78;;;7.00;99.90;;;;;;5081402;28;20051;-88
2022/03/30 08:07:15;;;;;;;5.03;2.88;;;7.10;99.90;;;;;;5078353;28;20044;-89
2022/03/30 08:09:44;;;;;;;5.35;2.85;;;7.10;99.90;;;;;;5088496;28;20049;-89
2022/03/30 08:12:14;;;;;;;6.72;2.80;;;7.10;99.90;;;;;;5070727;28;20036;-90
2022/03/30 08:14:41;;;;;;;9.57;2.78;;;6.90;99.90;;;;;;5093859;28;20052;-88
2022/03/30 08:17:07;;;;;;;4.53;2.30;;;6.80;99.90;;;;;;5079668;28;20032;-88
2022/03/30 08:19:35;;;;;;;5.43;2.88;;;6.80;99.90;;;;;;5078912;28;20045;-89
2022/03/30 08:24:47;;;;;;;4.80;1.75;;;6.80;99.90;;;;;;5078160;28;20060;-88
2022/03/30 08:27:19;;;;;;;3.38;0.98;;;7.00;99.90;;;;;;5060545;28;20047;-88
2022/03/30 08:29:45;;;;;;;5.50;1.33;;;6.90;99.90;;;;;;5078244;28;20044;-89
2022/03/30 08:32:15;;;;;;;4.30;1.35;;;6.90;99.90;;;;;;5060033;28;20463;-89
2022/03/30 08:34:42;;;;;;;9.18;1.98;;;6.90;99.90;;;;;;5060098;28;20044;-89
2022/03/30 08:37:09;;;;;;;7.75;1.10;;;7.00;99.90;;;;;;5060401;28;20072;-89
2022/03/30 08:39:35;;;;;;;6.10;1.20;;;7.00;99.90;;;;;;5077528;28;20056;-89
2022/03/30 08:42:05;;;;;;;6.70;1.70;;;6.90;99.90;;;;;;5077573;28;20074;-89
2022/03/30 08:44:35;;;;;;;3.60;1.25;;;6.60;99.90;;;;;;5059416;28;20053;-88
2022/03/30 08:47:01;;;;;;;5.03;1.20;;;6.20;99.90;;;;;;5077721;28;20121;-89
2022/03/30 08:49:33;;;;;;;7.43;1.58;;;6.10;99.90;;;;;;5059563;28;20037;-88
2022/03/30 08:52:00;;;;;;;7.63;1.20;;;6.50;99.90;;;;;;5059758;28;20102;-89
2022/03/30 08:54:26;;;;;;;6.35;1.38;;;5.10;99.90;;;;;;5059345;28;20056;-89
2022/03/30 08:56:51;;;;;;;7.60;1.80;;;4.90;99.90;;;;;;5077237;28;20048;-89
2022/03/30 08:59:23;;;;;;;6.57;1.20;;;4.90;99.90;;;;;;5059100;28;20127;-89
2022/03/30 09:01:50;;;;;;;4.63;1.23;;;5.10;99.90;;;;;;5043062;28;20044;-89
2022/03/30 09:04:17;;;;;;;6.05;1.65;;;5.40;99.90;;;;;;5076705;28;20044;-89
2022/03/30 09:06:51;;;;;;;4.32;1.25;;;5.70;99.90;;;;;;5077416;28;20048;-89
2022/03/30 09:09:33;;;;;;;4.00;1.00;;;5.90;99.90;;;;;;5059515;28;20036;-88
2022/03/30 09:12:00;;;;;;;5.78;1.52;;;6.00;99.90;;;;;;5077342;28;20048;-89
2022/03/30 09:14:29;;;;;;;6.43;1.23;;;5.90;99.90;;;;;;5058607;28;20089;-89
2022/03/30 09:17:04;;;;;;;3.63;1.33;;;6.00;99.90;;;;;;5042322;28;20390;-88
2022/03/30 09:19:39;;;;;;;4.15;1.38;;;6.00;99.90;;;;;;5075914;28;20597;-88
2022/03/30 09:22:07;;;;;;;6.53;1.13;;;6.10;99.90;;;;;;5043888;28;20097;-89
2022/03/30 09:24:38;;;;;;;5.85;1.10;;;6.20;99.90;;;;;;5058639;28;20052;-89
2022/03/30 09:27:06;;;;;;;6.93;1.05;;;6.40;99.90;;;;;;5058990;28;20041;-89
2022/03/30 09:29:37;;;;;;;2.67;1.15;;;6.70;99.90;;;;;;5077624;28;20119;-88
2022/03/30 09:32:07;;;;;;;3.00;0.88;;;6.60;99.90;;;;;;5076203;28;20059;-88
2022/03/30 09:34:46;;;;;;;4.80;0.75;;;6.40;99.90;;;;;;5078442;28;20059;-89
2022/03/30 09:37:12;;;;;;;6.05;1.00;;;6.30;99.90;;;;;;5077134;28;20127;-89
2022/03/30 09:39:42;;;;;;;5.35;1.30;;;6.40;99.90;;;;;;5096449;28;20048;-89
2022/03/30 09:42:09;;;;;;;3.70;1.00;;;6.40;99.90;;;;;;5095689;28;20442;-89
2022/03/30 09:44:46;;;;;;;2.33;0.52;;;6.50;99.90;;;;;;5058868;28;20366;-88
2022/03/30 09:47:11;;;;;;;;;;;6.60;99.90;;;;;;5058521;28;20165;-88
2022/03/30 09:49:40;;;;;;;6.33;0.77;;;6.50;99.90;;;;;;5075600;28;20325;-87
2022/03/30 09:52:22;;;;;;;2.67;0.90;;;6.60;99.90;;;;;;5075406;28;20045;-89
2022/03/30 09:54:53;;;;;;;6.53;1.63;;;6.60;99.90;;;;;;5074891;28;20052;-89
2022/03/30 09:57:26;;;;;;;3.80;1.20;;;6.70;99.90;;;;;;5040805;28;20570;-89
2022/03/30 09:59:59;;;;;;;3.63;1.00;;;6.60;99.90;;;;;;5040976;28;20499;-89
2022/03/30 10:02:26;;;;;;;4.10;1.30;;;6.60;99.90;;;;;;5075868;28;20093;-88
2022/03/30 10:04:52;;;;;;;5.47;1.58;;;6.50;99.90;;;;;;5074562;28;20044;-88
2022/03/30 10:07:20;;;;;;;3.95;1.20;;;6.70;99.90;;;;;;5058940;28;20059;-89
2022/03/30 10:09:47;;;;;;;3.22;1.00;;;6.60;99.90;;;;;;5076270;28;20052;-90
2022/03/30 10:12:19;;;;;;;109.10;7.75;;;6.70;99.90;;;;;;5046678;28;20118;-90
2022/03/30 10:14:47;;;;;;;7.00;1.58;;;6.70;99.90;;;;;;5064463;28;20064;-89
2022/03/30 10:17:15;;;;;;;8.10;1.90;;;6.90;99.90;;;;;;5083311;28;20170;-88
2022/03/30 10:19:44;;;;;;;5.22;1.95;;;6.90;99.90;;;;;;5083513;28;20548;-90
2022/03/30 10:22:34;;;;;;;7.47;2.78;;;7.20;99.90;;;;;;5087712;28;20458;-90
2022/03/30 10:25:12;;;;;;;6.18;1.60;;;7.20;99.90;;;;;;5076457;28;20040;-89
2022/03/30 10:27:47;;;;;;;8.35;2.20;;;7.30;99.90;;;;;;5075411;28;20115;-89
2022/03/30 10:30:12;;;;;;;6.50;1.92;;;7.40;99.90;;;;;;5056671;28;20052;-89
2022/03/30 10:32:40;;;;;;;7.57;1.58;;;7.40;99.90;;;;;;5057529;28;20119;-89
2022/03/30 10:35:09;;;;;;;4.32;1.48;;;8.20;99.90;;;;;;5057053;28;20090;-89
2022/03/30 10:37:42;;;;;;;6.10;1.92;;;7.60;99.90;;;;;;5057273;28;20459;-89
2022/03/30 10:40:23;;;;;;;4.20;1.70;;;7.60;99.90;;;;;;5040436;28;20056;-89
2022/03/30 10:42:53;;;;;;;7.30;2.15;;;7.70;99.90;;;;;;5057004;28;20152;-90
2022/03/30 10:45:23;;;;;;;4.68;1.58;;;8.00;99.90;;;;;;5075013;28;20055;-90
2022/03/30 10:48:07;;;;;;;3.90;1.60;;;7.80;99.90;;;;;;5057164;28;20068;-89
2022/03/30 10:50:35;;;;;;;5.35;1.42;;;7.90;99.90;;;;;;5075136;28;20080;-89
2022/03/30 10:53:02;;;;;;;6.53;1.75;;;8.00;99.90;;;;;;5056642;28;20467;-90
2022/03/30 10:55:36;;;;;;;3.70;1.38;;;8.10;99.90;;;;;;5073358;28;20044;-89
2022/03/30 10:58:19;;;;;;;5.80;1.55;;;8.10;99.90;;;;;;5057959;28;20044;-89
2022/03/30 11:00:46;;;;;;;5.35;1.60;;;8.10;99.90;;;;;;5059502;28;20080;-89
2022/03/30 11:03:21;;;;;;;4.55;1.40;;;8.30;99.90;;;;;;5075017;28;20090;-90
2022/03/30 11:06:01;;;;;;;8.13;1.45;;;8.40;99.90;;;;;;5075669;28;20048;-90
2022/03/30 11:08:51;;;;;;;5.38;1.63;;;8.60;99.90;;;;;;5074832;28;20115;-89
2022/03/30 11:11:24;;;;;;;4.38;1.17;;;8.60;99.90;;;;;;5056379;28;20052;-88
2022/03/30 11:14:25;;;;;;;9.55;1.77;;;8.30;99.90;;;;;;5075163;28;20078;-90
2022/03/30 11:16:56;;;;;;;4.25;1.00;;;7.80;99.90;;;;;;5057473;28;20521;-90
2022/03/30 11:19:29;;;;;;;3.83;1.20;;;7.40;99.90;;;;;;5073466;28;20041;-89
2022/03/30 11:22:15;;;;;;;4.28;1.65;;;7.30;99.90;;;;;;5074175;28;20402;-90
2022/03/30 11:24:43;;;;;;;5.50;2.05;;;7.30;99.90;;;;;;5075404;28;20041;-89
2022/03/30 11:27:09;;;;;;;4.65;1.80;;;8.40;99.90;;;;;;5059135;28;20051;-89
2022/03/30 11:29:52;;;;;;;4.38;1.65;;;7.40;99.90;;;;;;5078432;28;20037;-89
2022/03/30 11:32:24;;;;;;;3.72;1.25;;;7.40;99.90;;;;;;5078330;28;20482;-89
2022/03/30 11:34:58;;;;;;;3.80;1.42;;;7.90;99.90;;;;;;5044098;28;20048;-90
2022/03/30 11:37:28;;;;;;;5.35;1.55;;;7.00;99.90;;;;;;5059880;28;20041;-89
2022/03/30 11:40:21;;;;;;;3.42;1.27;;;6.90;99.90;;;;;;5043647;28;20486;-89
2022/03/30 11:42:55;;;;;;;1.90;1.00;;;7.00;99.90;;;;;;5073977;28;20051;-89
2022/03/30 11:45:24;;;;;;;4.55;1.10;;;7.10;99.90;;;;;;5060585;28;20032;-90
2022/03/30 11:47:57;;;;;;;4.43;1.27;;;7.40;99.90;;;;;;5077813;28;20355;-89
2022/03/30 11:50:34;;;;;;;4.55;1.05;;;7.50;99.90;;;;;;5077991;28;20049;-89
2022/03/30 11:53:07;;;;;;;4.05;1.00;;;8.00;99.90;;;;;;5059463;28;20044;-89
2022/03/30 11:55:36;;;;;;;3.95;1.27;;;8.50;99.90;;;;;;5060182;28;20040;-90
2022/03/30 11:58:03;;;;;;;7.22;1.25;;;8.80;99.90;;;;;;5077761;28;20056;-89
2022/03/30 12:00:31;;;;;;;5.82;2.22;;;9.00;99.90;;;;;;5043503;28;20080;-89
2022/03/30 12:02:58;;;;;;;2.78;0.95;;;9.20;99.90;;;;;;5077913;28;20046;-90
2022/03/30 12:05:25;;;;;;;3.63;0.70;;;9.50;99.90;;;;;;5060108;28;20052;-90
2022/03/30 12:07:53;;;;;;;4.65;1.13;;;9.30;99.90;;;;;;5078583;28;20053;-89
2022/03/30 12:10:20;;;;;;;7.18;0.93;;;8.80;99.90;;;;;;5078478;28;20101;-90
2022/03/30 12:12:48;;;;;;;4.45;1.77;;;8.50;99.90;;;;;;5061344;28;20413;-89
2022/03/30 12:15:19;;;;;;;3.20;0.73;;;8.50;99.90;;;;;;5080415;28;20044;-89
2022/03/30 12:17:59;;;;;;;4.65;0.85;;;8.20;99.90;;;;;;5086195;28;20144;-90
2022/03/30 12:20:33;;;;;;;3.45;0.77;;;8.20;99.90;;;;;;5087069;28;20197;-88
2022/03/30 12:23:02;;;;;;;3.88;1.15;;;7.90;99.90;;;;;;5088168;28;20045;-90
2022/03/30 12:25:36;;;;;;;2.75;0.60;;;8.00;99.90;;;;;;5094224;28;20037;-88
2022/03/30 12:28:03;;;;;;;2.88;0.90;;;8.50;99.90;;;;;;5097721;28;20028;-89
2022/03/30 12:30:38;;;;;;;2.72;0.63;;;8.70;99.90;;;;;;5081359;28;20024;-90
2022/03/30 12:33:04;;;;;;;6.07;1.25;;;8.90;96.80;;;;;;5092352;28;20044;-90
2022/03/30 12:35:33;;;;;;;2.97;0.93;;;9.90;95.00;;;;;;5060702;28;20138;-90
2022/03/30 12:38:11;;;;;;;3.78;0.98;;;9.20;99.90;;;;;;5059897;28;20514;-90
2022/03/30 12:40:40;;;;;;;5.32;1.50;;;9.40;94.90;;;;;;5077779;28;20048;-89
2022/03/30 12:43:06;;;;;;;5.38;2.00;;;9.60;94.20;;;;;;5042012;28;20056;-89
2022/03/30 12:45:33;;;;;;;1.73;0.70;;;9.80;91.50;;;;;;5058984;28;20495;-89
2022/03/30 12:48:01;;;;;;;4.57;1.02;;;10.00;91.90;;;;;;5077510;28;20051;-90
2022/03/30 12:50:33;;;;;;;2.42;0.55;;;10.60;93.40;;;;;;5077462;28;20045;-91
2022/03/30 12:53:17;;;;;;;3.50;0.93;;;11.20;81.20;;;;;;5059190;28;20068;-90
2022/03/30 12:55:48;;;;;;;5.97;1.35;;;11.50;72.40;;;;;;5077144;28;20044;-89
2022/03/30 12:58:24;;;;;;;5.50;1.00;;;11.00;65.10;;;;;;5076613;28;20490;-89
2022/03/30 13:00:52;;;;;;;3.35;1.10;;;10.60;74.10;;;;;;5059059;28;20044;-90
2022/03/30 13:03:24;;;;;;;11.48;1.60;;;10.40;70.80;;;;;;5059008;28;20086;-89
2022/03/30 13:06:08;;;;;;;7.90;1.17;;;10.30;81.90;;;;;;5059814;28;20048;-91